createdAt,value
2023-02-13T00:00:06.624Z,312.15
2023-02-13T00:01:11.519Z,283.58
2023-02-13T00:02:14.428Z,307.55
2023-02-13T00:03:19.410Z,268.52
2023-02-13T00:04:21.604Z,280.98
2023-02-13T00:05:26.268Z,291.23
2023-02-13T00:06:31.040Z,288.35
2023-02-13T00:07:35.830Z,297.83
2023-02-13T00:08:40.645Z,294.73
2023-02-13T00:09:42.823Z,280.83
2023-02-13T00:10:47.573Z,260.67
2023-02-13T00:11:49.756Z,240.57
2023-02-13T00:12:54.509Z,310.33
2023-02-13T00:13:56.721Z,218.25
2023-02-13T00:15:02.061Z,230.85
2023-02-13T00:16:05.449Z,256.42
2023-02-13T00:17:10.509Z,256.02
2023-02-13T00:18:12.584Z,223.77
2023-02-13T00:19:17.339Z,182.40
2023-02-13T00:20:22.086Z,240.35
2023-02-13T00:21:24.170Z,216.80
2023-02-13T00:22:28.892Z,231.88
2023-02-13T00:23:35.005Z,244.63
2023-02-13T00:24:39.948Z,313.42
2023-02-13T00:25:42.079Z,278.92
2023-02-13T00:26:46.989Z,226.88
2023-02-13T00:27:51.112Z,259.77
2023-02-13T00:28:56.195Z,273.63
2023-02-13T00:29:58.338Z,273.95
2023-02-13T00:31:07.182Z,254.07
2023-02-13T00:32:09.792Z,222.65
2023-02-13T00:33:14.718Z,242.48
2023-02-13T00:34:16.853Z,233.93
2023-02-13T00:35:21.642Z,230.85
2023-02-13T00:36:24.627Z,214.45
2023-02-13T00:37:29.552Z,218.68
2023-02-13T00:38:34.376Z,217.27
2023-02-13T00:39:39.131Z,228.60
2023-02-13T00:40:41.701Z,232.55
2023-02-13T00:41:46.537Z,232.35
2023-02-13T00:42:48.713Z,226.63
2023-02-13T00:43:53.960Z,203.98
2023-02-13T00:44:56.322Z,270.58
2023-02-13T00:46:01.717Z,255.90
2023-02-13T00:47:04.067Z,255.02
2023-02-13T00:48:09.210Z,255.77
2023-02-13T00:49:11.362Z,252.85
2023-02-13T00:50:16.134Z,254.85
2023-02-13T00:51:18.283Z,253.20
2023-02-13T00:52:23.217Z,231.82
2023-02-13T00:53:26.749Z,246.43
2023-02-13T00:54:34.225Z,257.77
2023-02-13T00:55:36.703Z,266.67
2023-02-13T00:56:41.785Z,249.35
2023-02-13T00:57:44.231Z,242.38
2023-02-13T00:58:49.143Z,259.80
2023-02-13T00:59:51.873Z,265.48
2023-02-13T01:00:57.685Z,236.45
2023-02-13T01:02:00.344Z,233.32
2023-02-13T01:03:05.400Z,229.13
2023-02-13T01:04:07.651Z,253.82
2023-02-13T01:05:12.619Z,271.58
2023-02-13T01:06:14.813Z,278.85
2023-02-13T01:07:19.689Z,271.67
2023-02-13T01:08:21.930Z,270.55
2023-02-13T01:09:26.824Z,247.75
2023-02-13T01:10:31.638Z,251.25
2023-02-13T01:11:36.742Z,293.73
2023-02-13T01:12:39.004Z,299.55
2023-02-13T01:13:44.135Z,291.23
2023-02-13T01:14:46.564Z,310.08
2023-02-13T01:15:51.862Z,317.00
2023-02-13T01:16:54.020Z,314.15
2023-02-13T01:17:59.448Z,294.17
2023-02-13T01:19:01.604Z,353.50
2023-02-13T01:20:06.833Z,329.33
2023-02-13T01:21:15.698Z,331.70
2023-02-13T01:22:20.527Z,335.88
2023-02-13T01:23:22.714Z,312.48
2023-02-13T01:24:52.687Z,310.13
2023-02-13T01:26:00.476Z,362.25
2023-02-13T01:27:02.617Z,378.92
2023-02-13T01:28:07.696Z,385.45
2023-02-13T01:29:12.237Z,383.20
2023-02-13T01:30:18.683Z,392.23
2023-02-13T01:31:21.563Z,384.33
2023-02-13T01:32:26.433Z,383.48
2023-02-13T01:33:30.024Z,360.33
2023-02-13T01:34:35.045Z,374.83
2023-02-13T01:35:39.672Z,374.02
2023-02-13T01:36:44.456Z,392.35
2023-02-13T01:37:46.566Z,379.58
2023-02-13T01:38:51.430Z,350.58
2023-02-13T01:39:54.759Z,364.08
2023-02-13T01:41:02.094Z,365.73
2023-02-13T01:42:04.753Z,336.85
2023-02-13T01:43:12.780Z,339.88
2023-02-13T01:44:44.971Z,352.48
2023-02-13T01:46:54.038Z,361.17
2023-02-13T01:48:01.215Z,366.80
2023-02-13T01:49:07.006Z,342.33
2023-02-13T01:50:16.125Z,342.42
2023-02-13T01:51:23.599Z,294.83
2023-02-13T01:52:28.437Z,332.85
2023-02-13T01:53:36.044Z,307.55
2023-02-13T01:54:41.415Z,295.00
2023-02-13T01:56:04.656Z,289.13
2023-02-13T01:57:10.648Z,301.27
2023-02-13T01:58:19.250Z,343.38
2023-02-13T01:59:29.294Z,303.55
2023-02-13T02:00:31.636Z,320.23
2023-02-13T02:01:38.167Z,404.00
2023-02-13T02:02:45.077Z,391.27
2023-02-13T02:03:54.954Z,362.80
2023-02-13T02:04:57.367Z,394.52
2023-02-13T02:06:04.104Z,302.45
2023-02-13T02:07:11.307Z,347.02
2023-02-13T02:08:18.225Z,413.08
2023-02-13T02:09:24.004Z,352.98
2023-02-13T02:10:29.399Z,306.13
2023-02-13T02:11:41.260Z,310.33
2023-02-13T02:12:50.751Z,329.23
2023-02-13T02:13:54.465Z,359.65
2023-02-13T02:15:03.239Z,309.02
2023-02-13T02:16:05.936Z,329.08
2023-02-13T02:17:11.257Z,331.13
2023-02-13T02:18:16.140Z,329.80
2023-02-13T02:19:29.848Z,323.63
2023-02-13T02:20:59.306Z,387.85
2023-02-13T02:22:28.640Z,437.50
2023-02-13T02:23:59.058Z,340.83
2023-02-13T02:25:34.584Z,465.10
2023-02-13T02:27:03.972Z,407.88
2023-02-13T02:28:35.052Z,447.20
2023-02-13T02:30:05.390Z,432.90
2023-02-13T02:31:33.383Z,405.98
2023-02-13T02:32:57.278Z,299.50
2023-02-13T02:34:19.110Z,351.35
2023-02-13T02:35:33.542Z,367.63
2023-02-13T02:36:55.767Z,343.25
2023-02-13T02:38:08.646Z,337.33
2023-02-13T02:39:24.079Z,339.38
2023-02-13T02:40:37.349Z,357.10
2023-02-13T02:41:56.649Z,338.23
2023-02-13T02:43:13.994Z,325.77
2023-02-13T02:44:33.677Z,343.60
2023-02-13T02:45:40.250Z,327.85
2023-02-13T02:47:11.799Z,292.50
2023-02-13T02:48:41.032Z,336.42
2023-02-13T02:50:04.893Z,372.02
2023-02-13T02:51:18.158Z,421.92
2023-02-13T02:52:29.427Z,478.10
2023-02-13T02:53:38.554Z,377.02
2023-02-13T02:55:01.256Z,401.05
2023-02-13T02:56:13.452Z,436.38
2023-02-13T02:57:20.464Z,383.33
2023-02-13T02:58:42.968Z,362.92
2023-02-13T03:00:03.441Z,335.90
2023-02-13T03:01:23.722Z,415.63
2023-02-13T03:02:41.994Z,410.45
2023-02-13T03:04:02.436Z,466.25
2023-02-13T03:05:20.226Z,518.17
2023-02-13T03:06:30.322Z,426.67
2023-02-13T03:07:33.094Z,402.50
2023-02-13T03:08:50.214Z,418.05
2023-02-13T03:10:11.266Z,448.25
2023-02-13T03:11:29.005Z,436.60
2023-02-13T03:12:53.576Z,470.90
2023-02-13T03:14:01.141Z,461.88
2023-02-13T03:15:03.627Z,518.85
2023-02-13T03:16:21.730Z,513.53
2023-02-13T03:17:39.002Z,462.45
2023-02-13T03:18:59.456Z,437.40
2023-02-13T03:20:35.067Z,452.90
2023-02-13T03:22:02.772Z,441.02
2023-02-13T03:23:16.757Z,470.02
2023-02-13T03:24:30.823Z,391.77
2023-02-13T03:25:47.283Z,578.72
2023-02-13T03:26:57.832Z,419.02
2023-02-13T03:28:22.447Z,502.95
2023-02-13T03:29:52.955Z,449.02
2023-02-13T03:31:04.006Z,472.77
2023-02-13T03:32:16.133Z,483.42
2023-02-13T03:33:32.638Z,471.05
2023-02-13T03:34:53.418Z,379.08
2023-02-13T03:36:20.337Z,474.92
2023-02-13T03:37:46.028Z,470.83
2023-02-13T03:39:10.705Z,482.15
2023-02-13T03:40:18.472Z,385.50
2023-02-13T03:41:28.043Z,466.05
2023-02-13T03:42:36.044Z,473.30
2023-02-13T03:43:48.771Z,477.13
2023-02-13T03:45:12.411Z,380.95
2023-02-13T03:46:18.524Z,442.63
2023-02-13T03:47:20.787Z,437.55
2023-02-13T03:48:41.959Z,401.98
2023-02-13T03:50:02.988Z,447.33
2023-02-13T03:51:13.735Z,435.95
2023-02-13T03:52:22.697Z,522.47
2023-02-13T03:53:29.634Z,443.15
2023-02-13T03:54:51.374Z,457.98
2023-02-13T03:56:10.212Z,450.35
2023-02-13T03:57:33.123Z,456.67
2023-02-13T03:58:52.770Z,480.67
2023-02-13T04:00:00.362Z,421.52
2023-02-13T04:01:07.975Z,470.35
2023-02-13T04:02:16.638Z,448.80
2023-02-13T04:03:26.311Z,460.98
2023-02-13T04:04:38.596Z,419.58
2023-02-13T04:05:46.390Z,438.92
2023-02-13T04:06:54.438Z,435.40
2023-02-13T04:07:59.729Z,444.38
2023-02-13T04:09:02.041Z,442.33
2023-02-13T04:10:10.313Z,457.90
2023-02-13T04:11:18.394Z,457.75
2023-02-13T04:12:28.566Z,375.50
2023-02-13T04:13:35.679Z,328.35
2023-02-13T04:14:46.649Z,362.23
2023-02-13T04:15:54.794Z,361.25
2023-02-13T04:17:06.085Z,388.85
2023-02-13T04:18:14.050Z,463.90
2023-02-13T04:19:19.486Z,355.92
2023-02-13T04:20:21.968Z,384.67
2023-02-13T04:21:27.526Z,342.83
2023-02-13T04:22:32.210Z,407.58
2023-02-13T04:23:37.299Z,385.73
2023-02-13T04:24:39.387Z,409.58
2023-02-13T04:25:47.440Z,404.17
2023-02-13T04:26:49.623Z,411.60
2023-02-13T04:27:54.516Z,427.77
2023-02-13T04:28:56.563Z,480.55
2023-02-13T04:30:01.302Z,487.45
2023-02-13T04:31:03.518Z,470.77
2023-02-13T04:32:08.211Z,474.55
2023-02-13T04:33:10.179Z,390.38
2023-02-13T04:34:14.787Z,386.77
2023-02-13T04:35:18.160Z,434.38
2023-02-13T04:36:22.810Z,368.70
2023-02-13T04:37:27.491Z,398.20
2023-02-13T04:38:32.342Z,346.17
2023-02-13T04:39:37.861Z,400.08
2023-02-13T04:40:39.834Z,395.73
2023-02-13T04:41:44.587Z,398.73
2023-02-13T04:42:48.075Z,338.40
2023-02-13T04:43:52.945Z,403.67
2023-02-13T04:44:54.947Z,341.33
2023-02-13T04:45:59.794Z,399.20
2023-02-13T04:47:01.917Z,404.25
2023-02-13T04:48:06.923Z,432.35
2023-02-13T04:49:13.018Z,406.27
2023-02-13T04:50:15.212Z,359.60
2023-02-13T04:51:19.948Z,314.40
2023-02-13T04:52:21.970Z,439.63
2023-02-13T04:53:26.777Z,419.55
2023-02-13T04:54:31.492Z,315.10
2023-02-13T04:55:36.204Z,365.80
2023-02-13T04:56:38.221Z,345.35
2023-02-13T04:57:43.203Z,381.30
2023-02-13T04:58:45.312Z,376.30
2023-02-13T04:59:50.000Z,321.40
2023-02-13T05:00:52.085Z,376.15
2023-02-13T05:01:56.919Z,396.55
2023-02-13T05:03:04.384Z,390.23
2023-02-13T05:04:09.401Z,351.63
2023-02-13T05:05:11.532Z,386.63
2023-02-13T05:06:16.273Z,375.90
2023-02-13T05:07:18.407Z,370.92
2023-02-13T05:08:23.240Z,354.85
2023-02-13T05:09:25.477Z,402.67
2023-02-13T05:10:33.002Z,420.75
2023-02-13T05:11:35.034Z,434.35
2023-02-13T05:12:39.858Z,423.17
2023-02-13T05:13:42.168Z,428.95
2023-02-13T05:14:46.847Z,477.85
2023-02-13T05:15:49.188Z,448.80
2023-02-13T05:16:54.006Z,440.33
2023-02-13T05:17:55.979Z,474.52
2023-02-13T05:19:00.734Z,460.75
2023-02-13T05:20:02.862Z,542.00
2023-02-13T05:21:20.314Z,551.83
2023-02-13T05:22:37.497Z,575.33
2023-02-13T05:23:42.118Z,366.52
2023-02-13T05:24:44.118Z,488.35
2023-02-13T05:25:51.789Z,373.67
2023-02-13T05:26:53.943Z,401.50
2023-02-13T05:27:58.766Z,420.33
2023-02-13T05:29:15.856Z,449.45
2023-02-13T05:30:20.569Z,417.58
2023-02-13T05:31:22.725Z,370.60
2023-02-13T05:32:27.434Z,467.05
2023-02-13T05:33:29.516Z,459.95
2023-02-13T05:34:34.408Z,444.75
2023-02-13T05:35:36.518Z,466.58
2023-02-13T05:36:41.086Z,446.45
2023-02-13T05:37:43.129Z,424.10
2023-02-13T05:38:47.774Z,428.27
2023-02-13T05:39:49.823Z,412.95
2023-02-13T05:40:57.326Z,422.85
2023-02-13T05:42:04.848Z,397.02
2023-02-13T05:43:06.878Z,473.65
2023-02-13T05:44:12.116Z,432.05
2023-02-13T05:45:14.457Z,409.42
2023-02-13T05:46:19.226Z,495.25
2023-02-13T05:47:21.407Z,444.63
2023-02-13T05:48:26.137Z,447.10
2023-02-13T05:49:30.892Z,424.95
2023-02-13T05:50:32.993Z,447.50
2023-02-13T05:51:37.968Z,463.35
2023-02-13T05:52:39.950Z,458.70
2023-02-13T05:53:44.598Z,382.70
2023-02-13T05:54:46.745Z,436.65
2023-02-13T05:55:52.328Z,387.58
2023-02-13T05:56:57.183Z,442.15
2023-02-13T05:58:02.051Z,467.88
2023-02-13T05:59:04.607Z,465.98
2023-02-13T06:00:10.725Z,465.95
2023-02-13T06:01:13.066Z,434.08
2023-02-13T06:02:17.770Z,461.95
2023-02-13T06:03:19.953Z,354.08
2023-02-13T06:04:24.860Z,319.23
2023-02-13T06:05:26.966Z,459.35
2023-02-13T06:06:31.900Z,388.00
2023-02-13T06:07:37.279Z,407.88
2023-02-13T06:08:39.493Z,477.10
2023-02-13T06:09:47.154Z,471.05
2023-02-13T06:10:49.364Z,475.30
2023-02-13T06:11:54.275Z,481.63
2023-02-13T06:12:59.052Z,504.20
2023-02-13T06:14:03.790Z,472.00
2023-02-13T06:15:07.454Z,517.80
2023-02-13T06:16:13.454Z,471.40
2023-02-13T06:17:18.217Z,476.80
2023-02-13T06:18:20.406Z,442.35
2023-02-13T06:19:25.176Z,515.78
2023-02-13T06:20:27.282Z,477.67
2023-02-13T06:21:33.531Z,462.10
2023-02-13T06:22:35.712Z,514.95
2023-02-13T06:23:41.307Z,463.17
2023-02-13T06:24:43.445Z,429.38
2023-02-13T06:25:48.241Z,447.73
2023-02-13T06:26:52.968Z,419.88
2023-02-13T06:27:55.221Z,463.33
2023-02-13T06:29:03.577Z,469.23
2023-02-13T06:30:08.162Z,426.05
2023-02-13T06:31:13.033Z,440.23
2023-02-13T06:32:15.220Z,443.23
2023-02-13T06:33:19.908Z,458.13
2023-02-13T06:34:22.132Z,434.92
2023-02-13T06:35:27.508Z,382.80
2023-02-13T06:36:32.397Z,383.90
2023-02-13T06:37:34.963Z,424.92
2023-02-13T06:38:39.696Z,453.27
2023-02-13T06:39:42.900Z,441.20
2023-02-13T06:40:47.581Z,411.10
2023-02-13T06:41:49.600Z,530.65
2023-02-13T06:42:54.365Z,519.17
2023-02-13T06:43:56.603Z,473.33
2023-02-13T06:45:03.894Z,487.33
2023-02-13T06:46:06.760Z,534.70
2023-02-13T06:47:11.462Z,428.95
2023-02-13T06:48:13.792Z,520.58
2023-02-13T06:49:18.541Z,472.23
2023-02-13T06:50:20.883Z,453.73
2023-02-13T06:51:25.724Z,449.52
2023-02-13T06:52:28.012Z,441.92
2023-02-13T06:53:33.217Z,382.77
2023-02-13T06:54:46.822Z,301.33
2023-02-13T06:55:52.596Z,444.88
2023-02-13T06:56:54.723Z,450.17
2023-02-13T06:57:59.497Z,451.90
2023-02-13T06:59:04.431Z,448.33
2023-02-13T07:00:13.390Z,356.45
2023-02-13T07:01:18.190Z,477.40
2023-02-13T07:02:20.403Z,515.05
2023-02-13T07:03:25.294Z,416.52
2023-02-13T07:04:28.260Z,420.35
2023-02-13T07:05:33.187Z,482.33
2023-02-13T07:06:37.883Z,473.95
2023-02-13T07:07:41.906Z,393.55
2023-02-13T07:08:46.703Z,466.73
2023-02-13T07:09:48.757Z,479.60
2023-02-13T07:10:53.485Z,445.83
2023-02-13T07:11:55.481Z,420.77
2023-02-13T07:13:05.643Z,525.40
2023-02-13T07:14:09.035Z,477.15
2023-02-13T07:15:16.227Z,436.83
2023-02-13T07:16:21.421Z,520.85
2023-02-13T07:17:26.920Z,413.17
2023-02-13T07:18:29.029Z,441.17
2023-02-13T07:19:34.688Z,455.00
2023-02-13T07:20:39.716Z,406.63
2023-02-13T07:21:41.871Z,446.00
2023-02-13T07:22:46.606Z,471.67
2023-02-13T07:23:48.748Z,380.70
2023-02-13T07:24:53.493Z,449.52
2023-02-13T07:25:58.272Z,378.80
2023-02-13T07:27:00.387Z,434.50
2023-02-13T07:28:06.355Z,414.15
2023-02-13T07:29:12.256Z,441.58
2023-02-13T07:30:17.687Z,403.90
2023-02-13T07:31:22.448Z,375.23
2023-02-13T07:32:24.955Z,403.25
2023-02-13T07:33:29.641Z,448.02
2023-02-13T07:34:31.708Z,355.95
2023-02-13T07:35:37.789Z,351.10
2023-02-13T07:36:42.506Z,392.13
2023-02-13T07:37:47.181Z,411.58
2023-02-13T07:38:49.310Z,435.60
2023-02-13T07:39:54.111Z,398.10
2023-02-13T07:40:59.265Z,411.85
2023-02-13T07:42:04.035Z,405.92
2023-02-13T07:43:08.903Z,420.45
2023-02-13T07:44:11.336Z,414.33
2023-02-13T07:45:16.282Z,408.60
2023-02-13T07:46:21.252Z,444.83
2023-02-13T07:47:25.936Z,447.85
2023-02-13T07:48:31.926Z,377.15
2023-02-13T07:49:34.475Z,416.88
2023-02-13T07:50:39.436Z,389.90
2023-02-13T07:51:44.392Z,408.45
2023-02-13T07:52:56.470Z,435.73
2023-02-13T07:53:58.527Z,406.33
2023-02-13T07:55:03.347Z,395.02
2023-02-13T07:56:09.477Z,424.65
2023-02-13T07:57:14.325Z,412.35
2023-02-13T07:58:19.061Z,428.50
2023-02-13T07:59:21.221Z,448.15
2023-02-13T08:00:26.532Z,415.92
2023-02-13T08:01:33.996Z,390.85
2023-02-13T08:02:36.118Z,366.50
2023-02-13T08:03:41.093Z,364.95
2023-02-13T08:04:48.030Z,348.02
2023-02-13T08:05:52.766Z,351.83
2023-02-13T08:06:57.479Z,284.35
2023-02-13T08:08:00.224Z,359.02
2023-02-13T08:09:17.557Z,373.27
2023-02-13T08:10:35.497Z,384.02
2023-02-13T08:11:52.649Z,368.20
2023-02-13T08:12:57.754Z,450.25
2023-02-13T08:13:59.864Z,417.45
2023-02-13T08:15:04.611Z,426.13
2023-02-13T08:16:07.064Z,444.70
2023-02-13T08:17:15.026Z,184.52
2023-02-13T08:18:20.194Z,123.22
2023-02-13T08:19:24.981Z,198.30
2023-02-13T08:20:29.760Z,150.93
2023-02-13T08:21:35.449Z,216.27
2023-02-13T08:22:41.098Z,278.88
2023-02-13T08:23:43.569Z,166.45
2023-02-13T08:24:48.337Z,204.52
2023-02-13T08:25:50.581Z,226.05
2023-02-13T08:26:55.457Z,256.40
2023-02-13T08:28:00.512Z,305.50
2023-02-13T08:29:05.261Z,291.52
2023-02-13T08:30:11.709Z,279.92
2023-02-13T08:31:13.948Z,332.52
2023-02-13T08:32:21.507Z,361.48
2023-02-13T08:33:27.100Z,356.08
2023-02-13T08:34:29.237Z,240.63
2023-02-13T08:35:34.104Z,313.05
2023-02-13T08:36:36.325Z,200.85
2023-02-13T08:37:41.144Z,301.67
2023-02-13T08:38:45.980Z,286.00
2023-02-13T08:39:50.804Z,263.88
2023-02-13T08:40:53.197Z,193.38
2023-02-13T08:41:58.016Z,194.70
2023-02-13T08:43:04.098Z,282.27
2023-02-13T08:44:08.907Z,274.23
2023-02-13T08:45:11.963Z,317.33
2023-02-13T08:46:17.063Z,265.35
2023-02-13T08:47:24.687Z,252.43
2023-02-13T08:48:29.537Z,275.70
2023-02-13T08:49:34.382Z,238.90
2023-02-13T08:51:30.808Z,155.55
2023-02-13T08:58:39.620Z,209.13
2023-02-13T08:59:49.904Z,186.73
2023-02-13T09:01:01.699Z,230.43
2023-02-13T09:02:12.189Z,204.55
2023-02-13T09:03:20.363Z,320.42
2023-02-13T09:04:25.380Z,290.20
2023-02-13T09:05:31.845Z,230.98
2023-02-13T09:06:36.798Z,372.60
2023-02-13T09:07:41.543Z,335.13
2023-02-13T09:08:46.498Z,394.15
2023-02-13T09:09:51.407Z,248.88
2023-02-13T09:11:01.341Z,248.02
2023-02-13T09:12:06.429Z,298.63
2023-02-13T09:13:11.237Z,254.05
2023-02-13T09:14:16.178Z,302.08
2023-02-13T09:15:21.113Z,375.70
2023-02-13T09:16:26.778Z,367.45
2023-02-13T09:17:28.975Z,395.27
2023-02-13T09:18:37.320Z,354.80
2023-02-13T09:19:42.126Z,371.77
2023-02-13T09:20:46.904Z,376.63
2023-02-13T09:21:51.647Z,398.25
2023-02-13T09:22:58.757Z,319.08
2023-02-13T09:24:03.501Z,403.90
2023-02-13T09:25:12.339Z,334.58
2023-02-13T09:26:20.433Z,397.52
2023-02-13T09:27:25.627Z,381.15
2023-02-13T09:28:30.484Z,382.13
2023-02-13T09:29:35.347Z,220.48
2023-02-13T09:30:37.498Z,484.13
2023-02-13T09:31:42.496Z,365.30
2023-02-13T09:32:47.401Z,373.73
2023-02-13T09:33:55.057Z,654.05
2023-02-13T09:35:00.626Z,324.23
2023-02-13T09:36:08.527Z,205.13
2023-02-13T09:37:10.908Z,298.00
2023-02-13T09:38:16.006Z,273.73
2023-02-13T09:39:21.191Z,227.25
2023-02-13T09:40:28.272Z,255.07
2023-02-13T09:41:36.423Z,390.50
2023-02-13T09:42:38.879Z,340.70
2023-02-13T09:43:48.041Z,310.58
2023-02-13T09:44:51.866Z,307.77
2023-02-13T09:45:58.964Z,245.10
2023-02-13T09:47:08.422Z,321.40
2023-02-13T09:48:22.964Z,257.48
2023-02-13T09:49:35.232Z,310.27
2023-02-13T09:50:41.257Z,304.80
2023-02-13T09:51:48.166Z,315.63
2023-02-13T09:52:54.878Z,244.90
2023-02-13T09:54:03.197Z,288.55
2023-02-13T09:55:18.548Z,267.55
2023-02-13T09:56:40.510Z,305.38
2023-02-13T09:59:01.545Z,249.68
2023-02-13T10:00:14.744Z,369.90
2023-02-13T10:03:29.314Z,367.10
2023-02-13T10:04:50.944Z,335.25
2023-02-13T10:06:02.927Z,283.20
2023-02-13T10:07:23.521Z,347.33
2023-02-13T10:08:57.900Z,370.05
2023-02-13T10:10:05.947Z,184.65
2023-02-13T10:11:26.045Z,154.23
2023-02-13T10:12:49.934Z,305.67
2023-02-13T10:14:10.531Z,191.10
2023-02-13T10:15:25.265Z,433.48
2023-02-13T10:16:33.464Z,699.90
2023-02-13T10:17:39.933Z,646.55
2023-02-13T10:18:51.228Z,511.30
2023-02-13T10:20:04.446Z,762.63
2023-02-13T10:21:11.963Z,872.70
2023-02-13T10:22:19.579Z,854.70
2023-02-13T10:23:30.227Z,360.08
2023-02-13T10:24:39.338Z,371.05
2023-02-13T10:25:51.042Z,469.58
2023-02-13T10:28:08.418Z,304.15
2023-02-13T10:29:33.210Z,394.05
2023-02-13T10:30:44.185Z,419.73
2023-02-13T10:31:49.917Z,363.92
2023-02-13T10:33:14.370Z,351.27
2023-02-13T10:34:20.647Z,344.77
2023-02-13T10:35:34.145Z,183.85
2023-02-13T10:36:44.451Z,322.20
2023-02-13T10:37:52.467Z,678.40
2023-02-13T10:39:00.764Z,830.35
2023-02-13T10:40:05.484Z,954.70
2023-02-13T10:41:26.731Z,1134.78
2023-02-13T10:42:44.269Z,1199.60
2023-02-13T10:44:00.135Z,618.13
2023-02-13T10:45:17.647Z,699.30
2023-02-13T10:46:27.932Z,731.05
2023-02-13T10:47:48.774Z,723.85
2023-02-13T10:49:11.812Z,748.83
2023-02-13T10:50:25.886Z,936.47
2023-02-13T10:51:40.334Z,1137.78
2023-02-13T10:52:54.848Z,830.85
2023-02-13T10:54:30.434Z,755.38
2023-02-13T10:55:55.874Z,691.05
2023-02-13T10:57:11.795Z,702.33
2023-02-13T10:58:20.464Z,583.22
2023-02-13T10:59:40.637Z,780.45
2023-02-13T11:00:51.694Z,944.47
2023-02-13T11:01:59.778Z,684.28
2023-02-13T11:03:04.803Z,825.85
2023-02-13T11:04:13.267Z,827.92
2023-02-13T11:05:21.448Z,759.80
2023-02-13T11:06:23.537Z,962.63
2023-02-13T11:07:33.230Z,878.47
2023-02-13T11:08:39.528Z,832.95
2023-02-13T11:09:47.356Z,998.72
2023-02-13T11:10:52.721Z,1062.13
2023-02-13T11:11:57.690Z,970.00
2023-02-13T11:13:19.104Z,867.63
2023-02-13T11:14:25.322Z,1292.60
2023-02-13T11:15:32.271Z,1259.97
2023-02-13T11:16:40.671Z,1182.32
2023-02-13T11:17:46.822Z,965.38
2023-02-13T11:18:53.510Z,1229.22
2023-02-13T11:20:00.166Z,1268.97
2023-02-13T11:21:09.554Z,966.65
2023-02-13T11:22:16.919Z,1125.93
2023-02-13T11:23:40.892Z,964.58
2023-02-13T11:24:55.668Z,956.05
2023-02-13T11:26:04.156Z,1229.13
2023-02-13T11:27:13.890Z,1095.80
2023-02-13T11:28:23.222Z,1168.38
2023-02-13T11:29:31.158Z,1082.38
2023-02-13T11:30:35.414Z,1205.18
2023-02-13T11:31:41.355Z,855.35
2023-02-13T11:33:00.702Z,906.92
2023-02-13T11:34:27.678Z,1029.32
2023-02-13T11:35:35.786Z,1006.50
2023-02-13T11:36:40.710Z,1157.95
2023-02-13T11:37:45.351Z,1100.13
2023-02-13T11:38:58.421Z,1139.32
2023-02-13T11:40:23.543Z,1278.50
2023-02-13T11:41:29.125Z,1155.80
2023-02-13T11:42:36.535Z,1227.13
2023-02-13T11:43:47.791Z,1150.22
2023-02-13T11:44:56.404Z,908.35
2023-02-13T11:46:04.211Z,1061.68
2023-02-13T11:47:09.807Z,948.25
2023-02-13T11:48:24.783Z,1151.95
2023-02-13T11:49:32.753Z,1123.75
2023-02-13T11:50:38.996Z,1299.00
2023-02-13T11:51:47.641Z,999.38
2023-02-13T11:54:32.572Z,939.05
2023-02-13T11:55:38.938Z,1005.97
2023-02-13T11:57:04.157Z,1168.28
2023-02-13T11:58:27.907Z,1141.20
2023-02-13T11:59:36.012Z,1130.78
2023-02-13T12:00:43.518Z,1367.90
2023-02-13T12:01:49.356Z,1176.95
2023-02-13T12:02:54.178Z,1050.18
2023-02-13T12:04:04.705Z,1169.55
2023-02-13T12:05:21.287Z,1111.88
2023-02-13T12:06:25.964Z,1107.28
2023-02-13T12:07:32.980Z,961.95
2023-02-13T12:08:40.324Z,1053.30
2023-02-13T12:09:50.788Z,826.08
2023-02-13T12:10:57.260Z,453.33
2023-02-13T12:12:06.646Z,454.00
2023-02-13T12:13:18.392Z,498.33
2023-02-13T12:14:24.851Z,621.17
2023-02-13T12:15:31.937Z,192.13
2023-02-13T12:16:43.375Z,223.30
2023-02-13T12:17:51.031Z,185.27
2023-02-13T12:18:58.839Z,210.85
2023-02-13T12:20:04.132Z,171.55
2023-02-13T12:21:22.848Z,201.77
2023-02-13T12:22:40.463Z,183.48
2023-02-13T12:23:52.429Z,199.73
2023-02-13T12:25:40.721Z,198.40
2023-02-13T12:26:47.453Z,210.68
2023-02-13T12:28:05.888Z,199.13
2023-02-13T12:29:45.548Z,153.45
2023-02-13T12:31:09.670Z,227.25
2023-02-13T12:32:22.398Z,229.15
2023-02-13T12:33:44.129Z,306.50
2023-02-13T12:35:04.676Z,249.75
2023-02-13T12:36:17.439Z,249.25
2023-02-13T12:37:37.151Z,284.00
2023-02-13T12:39:02.623Z,417.88
2023-02-13T12:40:30.915Z,321.13
2023-02-13T12:41:46.589Z,289.58
2023-02-13T12:43:00.666Z,293.27
2023-02-13T12:44:22.952Z,344.08
2023-02-13T12:45:37.968Z,272.60
2023-02-13T12:46:53.459Z,252.30
2023-02-13T12:48:24.470Z,319.05
2023-02-13T12:49:45.421Z,299.52
2023-02-13T12:51:02.281Z,267.52
2023-02-13T12:52:22.651Z,285.42
2023-02-13T12:53:45.083Z,307.73
2023-02-13T12:55:01.804Z,191.48
2023-02-13T12:56:20.536Z,285.30
2023-02-13T12:57:42.974Z,195.75
2023-02-13T12:59:03.740Z,278.20
2023-02-13T13:00:27.102Z,290.90
2023-02-13T13:01:52.480Z,268.63
2023-02-13T13:03:25.478Z,265.45
2023-02-13T13:04:41.741Z,292.50
2023-02-13T13:06:11.810Z,262.05
2023-02-13T13:07:41.726Z,258.60
2023-02-13T13:09:23.910Z,237.70
2023-02-13T13:10:40.982Z,282.40
2023-02-13T13:12:11.284Z,252.98
2023-02-13T13:13:27.945Z,214.20
2023-02-13T13:14:41.181Z,349.60
2023-02-13T13:15:55.457Z,255.07
2023-02-13T13:17:08.598Z,261.15
2023-02-13T13:18:32.653Z,253.50
2023-02-13T13:19:47.630Z,326.20
2023-02-13T13:21:01.117Z,329.77
2023-02-13T13:22:11.951Z,255.88
2023-02-13T13:23:20.826Z,252.35
2023-02-13T13:24:36.063Z,256.30
2023-02-13T13:25:50.141Z,269.10
2023-02-13T13:26:54.875Z,238.43
2023-02-13T13:28:05.294Z,158.40
2023-02-13T13:29:19.254Z,284.27
2023-02-13T13:30:29.033Z,266.83
2023-02-13T13:31:37.261Z,382.30
2023-02-13T13:32:43.560Z,244.38
2023-02-13T13:33:50.060Z,218.13
2023-02-13T13:34:55.272Z,212.23
2023-02-13T13:36:06.998Z,276.10
2023-02-13T13:37:19.299Z,284.17
2023-02-13T13:38:33.164Z,276.90
2023-02-13T13:39:50.437Z,322.95
2023-02-13T13:41:01.529Z,399.75
2023-02-13T13:42:17.151Z,302.90
2023-02-13T13:43:32.618Z,199.13
2023-02-13T13:45:00.867Z,226.73
2023-02-13T13:46:14.280Z,295.38
2023-02-13T13:47:29.240Z,180.40
2023-02-13T13:49:01.290Z,161.95
2023-02-13T13:50:07.972Z,133.50
2023-02-13T13:51:20.496Z,146.70
2023-02-13T13:52:28.313Z,136.90
2023-02-13T13:53:30.541Z,111.65
2023-02-13T13:54:38.832Z,89.68
2023-02-13T13:56:02.523Z,119.18
2023-02-13T13:57:14.620Z,74.28
2023-02-13T13:58:25.183Z,45.35
2023-02-13T13:59:59.653Z,148.98
2023-02-13T14:01:23.222Z,77.80
2023-02-13T14:02:44.463Z,145.73
2023-02-13T14:03:50.580Z,111.95
2023-02-13T14:05:02.866Z,98.63
2023-02-13T14:06:10.670Z,103.88
2023-02-13T14:07:25.985Z,99.40
2023-02-13T14:09:09.714Z,114.47
2023-02-13T14:10:59.863Z,120.45
2023-02-13T14:12:45.160Z,74.50
2023-02-13T14:13:47.312Z,65.80
2023-02-13T14:14:52.690Z,74.45
2023-02-13T14:15:57.636Z,46.50
2023-02-13T14:17:05.578Z,73.07
2023-02-13T14:18:22.310Z,73.63
2023-02-13T14:19:29.902Z,62.05
2023-02-13T14:20:39.080Z,83.07
2023-02-13T14:21:43.687Z,132.45
2023-02-13T14:22:48.533Z,117.97
2023-02-13T14:23:53.709Z,98.38
2023-02-13T14:24:57.767Z,109.15
2023-02-13T14:26:36.335Z,102.03
2023-02-13T14:27:42.445Z,106.22
2023-02-13T14:28:59.796Z,137.80
2023-02-13T14:30:05.056Z,137.18
2023-02-13T14:31:16.994Z,125.07
2023-02-13T14:32:28.047Z,110.07
2023-02-13T14:33:35.165Z,109.95
2023-02-13T14:34:42.337Z,117.35
2023-02-13T14:35:47.156Z,104.03